createdAt,value
2022-09-07T00:00:55.809Z,63.19
2022-09-07T00:01:55.787Z,62.96
2022-09-07T00:02:55.843Z,63.74
2022-09-07T00:03:55.883Z,63.13
2022-09-07T00:04:55.769Z,63.67
2022-09-07T00:05:55.721Z,60.82
2022-09-07T00:06:55.749Z,62.04
2022-09-07T00:07:55.684Z,63.97
2022-09-07T00:08:55.716Z,62.22
2022-09-07T00:09:55.686Z,62.07
2022-09-07T00:10:55.634Z,65.38
2022-09-07T00:11:55.609Z,63.08
2022-09-07T00:12:55.589Z,62.86
2022-09-07T00:13:55.584Z,63.84
2022-09-07T00:14:55.598Z,64.90
2022-09-07T00:15:55.600Z,63.04
2022-09-07T00:16:55.587Z,63.47
2022-09-07T00:17:55.517Z,61.45
2022-09-07T00:18:55.480Z,62.39
2022-09-07T00:19:56.561Z,60.47
2022-09-07T00:20:55.554Z,60.33
2022-09-07T00:21:55.473Z,63.60
2022-09-07T00:22:56.430Z,61.43
2022-09-07T00:23:55.415Z,58.76
2022-09-07T00:24:55.419Z,62.99
2022-09-07T00:25:55.390Z,63.34
2022-09-07T00:26:55.366Z,64.33
2022-09-07T00:27:55.341Z,62.73
2022-09-07T00:28:55.337Z,62.87
2022-09-07T00:29:55.346Z,62.16
2022-09-07T00:30:55.332Z,64.32
2022-09-07T00:31:55.316Z,64.14
2022-09-07T00:32:55.262Z,64.04
2022-09-07T00:33:55.236Z,63.49
2022-09-07T00:34:55.257Z,64.45
2022-09-07T00:35:55.203Z,64.44
2022-09-07T00:36:55.243Z,62.64
2022-09-07T00:37:55.222Z,65.09
2022-09-07T00:38:55.169Z,64.38
2022-09-07T00:39:55.213Z,63.50
2022-09-07T00:40:55.181Z,63.78
2022-09-07T00:41:55.172Z,64.36
2022-09-07T00:42:55.087Z,62.83
2022-09-07T00:43:55.079Z,66.07
2022-09-07T00:44:55.106Z,64.32
2022-09-07T00:45:55.048Z,65.38
2022-09-07T00:46:55.102Z,64.15
2022-09-07T00:47:55.020Z,64.04
2022-09-07T00:48:54.980Z,64.93
2022-09-07T00:49:54.996Z,63.06
2022-09-07T00:50:54.942Z,63.81
2022-09-07T00:51:55.927Z,64.44
2022-09-07T00:52:54.946Z,63.76
2022-09-07T00:53:54.899Z,61.46
2022-09-07T00:54:54.919Z,62.66
2022-09-07T00:55:54.860Z,61.99
2022-09-07T00:56:54.865Z,63.50
2022-09-07T00:57:54.825Z,62.05
2022-09-07T00:58:54.800Z,64.09
2022-09-07T00:59:54.836Z,64.65
2022-09-07T01:00:54.774Z,65.46
2022-09-07T01:01:54.814Z,63.25
2022-09-07T01:02:54.856Z,63.34
2022-09-07T01:03:54.759Z,63.99
2022-09-07T01:04:54.729Z,65.17
2022-09-07T01:05:54.678Z,61.71
2022-09-07T01:06:54.666Z,63.18
2022-09-07T01:07:54.649Z,63.95
2022-09-07T01:08:54.644Z,63.43
2022-09-07T01:09:54.608Z,65.83
2022-09-07T01:10:54.629Z,63.77
2022-09-07T01:11:54.608Z,64.58
2022-09-07T01:12:54.572Z,66.87
2022-09-07T01:13:54.565Z,65.33
2022-09-07T01:14:54.555Z,66.44
2022-09-07T01:15:54.608Z,65.56
2022-09-07T01:16:54.537Z,65.24
2022-09-07T01:17:54.481Z,64.03
2022-09-07T01:18:54.470Z,64.16
2022-09-07T01:19:54.448Z,63.40
2022-09-07T01:20:54.497Z,62.07
2022-09-07T01:21:54.434Z,64.26
2022-09-07T01:22:54.396Z,64.29
2022-09-07T01:23:54.387Z,64.02
2022-09-07T01:24:54.377Z,64.51
2022-09-07T01:25:54.411Z,64.36
2022-09-07T01:26:54.383Z,63.82
2022-09-07T01:27:54.346Z,63.73
2022-09-07T01:28:54.302Z,63.43
2022-09-07T01:29:54.304Z,63.72
2022-09-07T01:30:54.313Z,64.98
2022-09-07T01:31:54.257Z,65.29
2022-09-07T01:32:54.253Z,64.64
2022-09-07T01:33:54.218Z,63.81
2022-09-07T01:34:54.222Z,62.80
2022-09-07T01:35:54.182Z,62.47
2022-09-07T01:36:55.058Z,64.78
2022-09-07T01:37:57.046Z,64.86
2022-09-07T01:38:55.138Z,61.88
2022-09-07T01:39:54.249Z,64.49
2022-09-07T01:40:54.109Z,64.16
2022-09-07T01:41:54.070Z,66.05
2022-09-07T01:42:54.070Z,63.54
2022-09-07T01:43:54.044Z,64.98
2022-09-07T01:44:54.058Z,63.38
2022-09-07T01:45:54.022Z,63.80
2022-09-07T01:46:54.016Z,63.82
2022-09-07T01:47:54.047Z,65.03
2022-09-07T01:48:53.948Z,63.30
2022-09-07T01:49:53.963Z,63.27
2022-09-07T01:50:53.916Z,63.71
2022-09-07T01:51:54.900Z,64.73
2022-09-07T01:52:53.880Z,64.00
2022-09-07T01:53:53.889Z,63.37
2022-09-07T01:54:53.889Z,64.21
2022-09-07T01:55:53.841Z,64.00
2022-09-07T01:56:53.899Z,66.40
2022-09-07T01:57:53.800Z,65.98
2022-09-07T01:58:53.865Z,65.33
2022-09-07T01:59:53.769Z,64.75
2022-09-07T02:00:53.787Z,63.01
2022-09-07T02:01:53.878Z,63.44
2022-09-07T02:02:53.813Z,65.36
2022-09-07T02:03:53.700Z,63.77
2022-09-07T02:04:53.716Z,63.90
2022-09-07T02:05:53.659Z,64.87
2022-09-07T02:06:53.700Z,64.70
2022-09-07T02:07:53.648Z,64.90
2022-09-07T02:08:53.642Z,64.26
2022-09-07T02:09:53.585Z,64.70
2022-09-07T02:10:53.607Z,63.82
2022-09-07T02:11:53.552Z,66.16
2022-09-07T02:12:53.540Z,65.27
2022-09-07T02:13:53.519Z,63.21
2022-09-07T02:14:53.515Z,65.92
2022-09-07T02:15:53.567Z,62.36
2022-09-07T02:16:53.525Z,63.19
2022-09-07T02:17:53.453Z,65.36
2022-09-07T02:18:53.442Z,64.92
2022-09-07T02:19:53.410Z,63.31
2022-09-07T02:20:53.515Z,64.35
2022-09-07T02:21:53.378Z,64.70
2022-09-07T02:22:53.375Z,63.08
2022-09-07T02:23:53.399Z,63.44
2022-09-07T02:24:53.403Z,62.08
2022-09-07T02:25:53.350Z,65.55
2022-09-07T02:26:53.388Z,64.12
2022-09-07T02:27:53.287Z,65.24
2022-09-07T02:28:53.257Z,64.02
2022-09-07T02:29:53.232Z,63.46
2022-09-07T02:30:53.324Z,64.12
2022-09-07T02:31:53.287Z,65.68
2022-09-07T02:32:53.184Z,64.43
2022-09-07T02:33:53.167Z,63.54
2022-09-07T02:34:53.151Z,63.49
2022-09-07T02:35:53.167Z,63.56
2022-09-07T02:36:53.155Z,59.61
2022-09-07T02:37:53.107Z,60.13
2022-09-07T02:38:53.079Z,61.03
2022-09-07T02:39:53.123Z,60.03
2022-09-07T02:40:53.088Z,61.13
2022-09-07T02:41:53.042Z,62.48
2022-09-07T02:42:53.057Z,59.30
2022-09-07T02:43:53.000Z,61.89
2022-09-07T02:44:52.978Z,58.68
2022-09-07T02:45:53.050Z,63.37
2022-09-07T02:46:53.021Z,62.06
2022-09-07T02:47:52.929Z,59.89
2022-09-07T02:48:52.894Z,57.39
2022-09-07T02:49:52.891Z,59.45
2022-09-07T02:50:52.896Z,59.66
2022-09-07T02:51:52.861Z,60.96
2022-09-07T02:52:52.834Z,60.16
2022-09-07T02:53:52.862Z,60.37
2022-09-07T02:54:52.796Z,61.34
2022-09-07T02:55:52.830Z,59.91
2022-09-07T02:56:52.793Z,63.55
2022-09-07T02:57:52.738Z,64.64
2022-09-07T02:58:52.757Z,59.97
2022-09-07T02:59:52.752Z,60.75
2022-09-07T03:00:52.712Z,60.86
2022-09-07T03:01:52.721Z,61.87
2022-09-07T03:02:52.716Z,60.40
2022-09-07T03:03:52.657Z,61.35
2022-09-07T03:04:52.738Z,62.34
2022-09-07T03:05:52.666Z,62.27
2022-09-07T03:06:52.722Z,63.35
2022-09-07T03:07:52.575Z,63.01
2022-09-07T03:08:52.560Z,61.03
2022-09-07T03:09:52.580Z,61.47
2022-09-07T03:10:52.532Z,61.42
2022-09-07T03:11:52.506Z,60.67
2022-09-07T03:12:52.515Z,63.62
2022-09-07T03:13:52.539Z,63.00
2022-09-07T03:14:52.500Z,64.08
2022-09-07T03:15:55.952Z,63.42
2022-09-07T03:16:53.492Z,63.55
2022-09-07T03:17:52.421Z,64.24
2022-09-07T03:18:52.412Z,62.28
2022-09-07T03:19:52.426Z,63.48
2022-09-07T03:20:52.351Z,64.92
2022-09-07T03:21:52.360Z,65.57
2022-09-07T03:22:52.321Z,63.20
2022-09-07T03:23:52.309Z,65.40
2022-09-07T03:24:52.314Z,63.96
2022-09-07T03:25:52.274Z,64.24
2022-09-07T03:26:52.316Z,63.72
2022-09-07T03:27:52.232Z,64.23
2022-09-07T03:28:52.214Z,64.24
2022-09-07T03:29:52.243Z,61.94
2022-09-07T03:30:52.218Z,62.31
2022-09-07T03:31:52.160Z,62.08
2022-09-07T03:32:52.142Z,65.09
2022-09-07T03:33:52.140Z,63.95
2022-09-07T03:34:52.127Z,63.08
2022-09-07T03:35:52.125Z,62.26
2022-09-07T03:36:52.078Z,63.73
2022-09-07T03:37:52.060Z,64.03
2022-09-07T03:38:52.049Z,64.23
2022-09-07T03:39:52.116Z,65.12
2022-09-07T03:40:52.043Z,64.77
2022-09-07T03:41:51.982Z,64.97
2022-09-07T03:42:51.976Z,65.99
2022-09-07T03:43:51.950Z,64.97
2022-09-07T03:44:51.949Z,63.89
2022-09-07T03:45:52.024Z,65.75
2022-09-07T03:46:51.915Z,66.46
2022-09-07T03:47:51.876Z,66.95
2022-09-07T03:48:51.889Z,65.74
2022-09-07T03:49:51.871Z,66.09
2022-09-07T03:50:51.838Z,65.97
2022-09-07T03:51:51.806Z,67.22
2022-09-07T03:52:51.788Z,67.76
2022-09-07T03:53:51.772Z,65.61
2022-09-07T03:54:51.803Z,66.80
2022-09-07T03:55:51.743Z,68.35
2022-09-07T03:56:51.776Z,66.36
2022-09-07T03:57:51.713Z,65.34
2022-09-07T03:58:51.712Z,69.03
2022-09-07T03:59:51.780Z,62.43
2022-09-07T04:00:51.649Z,64.62
2022-09-07T04:01:51.683Z,62.64
2022-09-07T04:02:51.659Z,67.75
2022-09-07T04:03:51.626Z,67.78
2022-09-07T04:04:51.625Z,67.35
2022-09-07T04:05:51.576Z,66.24
2022-09-07T04:06:51.643Z,68.43
2022-09-07T04:07:51.541Z,68.05
2022-09-07T04:08:51.547Z,69.43
2022-09-07T04:09:51.551Z,69.15
2022-09-07T04:10:51.546Z,67.91
2022-09-07T04:11:51.474Z,67.05
2022-09-07T04:12:51.466Z,65.06
2022-09-07T04:13:51.443Z,68.92
2022-09-07T04:14:51.446Z,67.29
2022-09-07T04:15:53.879Z,67.77
2022-09-07T04:16:52.524Z,67.11
2022-09-07T04:17:51.366Z,65.56
2022-09-07T04:18:51.360Z,67.59
2022-09-07T04:19:51.365Z,69.60
2022-09-07T04:20:51.324Z,69.21
2022-09-07T04:21:51.409Z,65.05
2022-09-07T04:22:54.179Z,67.64
2022-09-07T04:23:52.264Z,62.82
2022-09-07T04:24:51.297Z,69.17
2022-09-07T04:25:51.232Z,68.97
2022-09-07T04:26:51.272Z,68.80
2022-09-07T04:27:51.204Z,67.16
2022-09-07T04:28:51.182Z,66.73
2022-09-07T04:29:51.222Z,68.03
2022-09-07T04:30:51.185Z,69.03
2022-09-07T04:31:51.141Z,68.38
2022-09-07T04:32:51.170Z,66.62
2022-09-07T04:33:51.102Z,69.01
2022-09-07T04:34:51.118Z,66.66
2022-09-07T04:35:51.068Z,68.71
2022-09-07T04:36:51.061Z,68.44
2022-09-07T04:37:51.043Z,70.84
2022-09-07T04:38:51.044Z,67.33
2022-09-07T04:39:51.120Z,69.99
2022-09-07T04:40:50.992Z,68.15
2022-09-07T04:41:50.974Z,68.59
2022-09-07T04:42:50.962Z,67.74
2022-09-07T04:43:50.935Z,70.93
2022-09-07T04:44:50.948Z,68.84
2022-09-07T04:45:50.950Z,70.93
2022-09-07T04:46:50.899Z,70.42
2022-09-07T04:47:50.865Z,69.95
2022-09-07T04:48:50.850Z,70.62
2022-09-07T04:49:50.866Z,69.92
2022-09-07T04:50:50.826Z,69.81
2022-09-07T04:51:50.825Z,69.05
2022-09-07T04:52:50.793Z,68.50
2022-09-07T04:53:50.791Z,68.27
2022-09-07T04:54:50.841Z,69.98
2022-09-07T04:55:50.765Z,69.86
2022-09-07T04:56:50.758Z,68.77
2022-09-07T04:57:50.708Z,69.64
2022-09-07T04:58:50.708Z,67.91
2022-09-07T04:59:50.721Z,67.36
2022-09-07T05:00:50.691Z,68.42
2022-09-07T05:01:50.633Z,69.91
2022-09-07T05:02:50.674Z,69.01
2022-09-07T05:03:50.610Z,69.34
2022-09-07T05:04:50.616Z,70.15
2022-09-07T05:05:50.650Z,68.48
2022-09-07T05:06:50.663Z,69.44
2022-09-07T05:07:50.537Z,70.04
2022-09-07T05:08:50.529Z,68.85
2022-09-07T05:09:50.562Z,68.76
2022-09-07T05:10:50.490Z,68.09
2022-09-07T05:11:50.540Z,70.18
2022-09-07T05:12:50.469Z,68.80
2022-09-07T05:13:50.436Z,68.31
2022-09-07T05:14:50.460Z,69.97
2022-09-07T05:15:50.400Z,67.68
2022-09-07T05:16:50.433Z,69.80
2022-09-07T05:17:50.385Z,70.30
2022-09-07T05:18:50.354Z,69.76
2022-09-07T05:19:50.365Z,69.24
2022-09-07T05:20:50.317Z,69.14
2022-09-07T05:21:50.309Z,70.05
2022-09-07T05:22:50.288Z,68.29
2022-09-07T05:23:50.317Z,69.28
2022-09-07T05:24:50.249Z,68.62
2022-09-07T05:25:50.233Z,70.07
2022-09-07T05:26:50.265Z,68.76
2022-09-07T05:27:50.221Z,68.17
2022-09-07T05:28:50.474Z,68.93
2022-09-07T05:30:06.247Z,69.77
2022-09-07T05:31:52.144Z,69.39
2022-09-07T05:32:50.139Z,69.51
2022-09-07T05:34:53.026Z,69.18
2022-09-07T05:35:51.073Z,68.75
2022-09-07T05:36:50.107Z,67.83
2022-09-07T05:37:50.035Z,68.35
2022-09-07T05:38:50.151Z,69.27
2022-09-07T05:39:50.078Z,69.14
2022-09-07T05:40:49.980Z,69.10
2022-09-07T05:41:49.984Z,68.23
2022-09-07T05:42:49.962Z,68.22
2022-09-07T05:44:51.928Z,67.90
2022-09-07T05:45:49.938Z,67.38
2022-09-07T05:46:49.944Z,66.09
2022-09-07T05:47:49.885Z,66.85
2022-09-07T05:48:49.845Z,66.82
2022-09-07T05:49:51.957Z,67.12
2022-09-07T05:50:50.816Z,65.98
2022-09-07T05:51:49.838Z,67.07
2022-09-07T05:52:49.787Z,67.43
2022-09-07T05:53:49.769Z,66.70
2022-09-07T05:54:49.789Z,68.89
2022-09-07T05:55:49.739Z,68.06
2022-09-07T05:56:49.812Z,66.68
2022-09-07T05:57:49.706Z,67.44
2022-09-07T05:58:49.697Z,66.09
2022-09-07T05:59:49.735Z,66.17
2022-09-07T06:00:49.788Z,67.51
2022-09-07T06:01:49.718Z,66.67
2022-09-07T06:02:49.722Z,67.46
2022-09-07T06:03:49.592Z,68.30
2022-09-07T06:04:49.676Z,67.27
2022-09-07T06:05:49.564Z,66.29
2022-09-07T06:07:17.592Z,65.22
2022-09-07T06:07:51.529Z,65.84
2022-09-07T06:08:49.513Z,65.83
2022-09-07T06:10:51.467Z,64.64
2022-09-07T06:11:49.498Z,66.37
2022-09-07T06:12:49.593Z,64.81
2022-09-07T06:13:49.433Z,64.78
2022-09-07T06:14:49.443Z,64.76
2022-09-07T06:15:49.414Z,64.46
2022-09-07T06:16:49.498Z,64.62
2022-09-07T06:17:49.370Z,65.78
2022-09-07T06:18:49.334Z,65.88
2022-09-07T06:19:49.354Z,68.20
2022-09-07T06:20:49.316Z,67.67
2022-09-07T06:21:49.293Z,65.03
2022-09-07T06:22:49.300Z,65.74
2022-09-07T06:23:49.259Z,66.08
2022-09-07T06:24:49.277Z,65.42
2022-09-07T06:25:49.221Z,65.54
2022-09-07T06:26:49.267Z,66.73
2022-09-07T06:27:49.189Z,64.57
2022-09-07T06:28:50.902Z,65.05
2022-09-07T06:29:50.175Z,65.48
2022-09-07T06:30:49.149Z,66.56
2022-09-07T06:32:51.108Z,65.48
2022-09-07T06:33:49.131Z,65.78
2022-09-07T06:34:49.103Z,64.68
2022-09-07T06:35:49.085Z,65.66
2022-09-07T06:36:49.046Z,65.88
2022-09-07T06:37:49.020Z,65.48
2022-09-07T06:38:49.055Z,65.81
2022-09-07T06:39:49.078Z,65.75
2022-09-07T06:40:49.041Z,67.26
2022-09-07T06:42:04.383Z,64.84
2022-09-07T06:42:50.991Z,65.45
2022-09-07T06:43:48.948Z,64.96
2022-09-07T06:44:48.910Z,67.95
2022-09-07T06:45:48.974Z,68.36
2022-09-07T06:47:05.259Z,67.50
2022-09-07T06:47:50.862Z,67.36
2022-09-07T06:48:48.916Z,66.72
2022-09-07T06:49:48.828Z,64.90
2022-09-07T06:50:49.133Z,67.05
2022-09-07T06:51:48.812Z,66.91
2022-09-07T06:53:51.296Z,66.49
2022-09-07T06:55:50.790Z,65.40
2022-09-07T06:56:48.720Z,64.59
2022-09-07T06:57:48.696Z,65.71
2022-09-07T06:58:48.718Z,64.62
2022-09-07T06:59:48.667Z,65.06
2022-09-07T07:00:48.678Z,65.15
2022-09-07T07:01:48.649Z,65.37
2022-09-07T07:02:48.712Z,64.05
2022-09-07T07:03:48.609Z,65.05
2022-09-07T07:04:48.617Z,64.07
2022-09-07T07:05:48.576Z,65.83
2022-09-07T07:06:48.597Z,64.64
2022-09-07T07:07:48.554Z,64.36
2022-09-07T07:08:48.537Z,64.44
2022-09-07T07:09:48.553Z,64.14
2022-09-07T07:10:48.496Z,63.81
2022-09-07T07:11:48.467Z,63.44
2022-09-07T07:12:49.470Z,64.90
2022-09-07T07:13:48.460Z,63.04
2022-09-07T07:14:48.478Z,63.72
2022-09-07T07:15:48.407Z,64.25
2022-09-07T07:16:48.466Z,64.61
2022-09-07T07:17:56.066Z,64.48
2022-09-07T07:18:50.372Z,64.48
2022-09-07T07:19:48.374Z,62.70
2022-09-07T07:20:48.332Z,63.69
2022-09-07T07:22:10.796Z,64.85
2022-09-07T07:22:50.392Z,63.45
2022-09-07T07:23:48.317Z,64.53
2022-09-07T07:24:48.277Z,63.26
2022-09-07T07:25:48.247Z,62.13
2022-09-07T07:26:48.243Z,63.40
2022-09-07T07:27:48.216Z,62.77
2022-09-07T07:29:04.163Z,64.44
2022-09-07T07:29:50.226Z,61.49
2022-09-07T07:30:49.186Z,62.83
2022-09-07T07:31:48.214Z,61.97
2022-09-07T07:32:48.142Z,62.60
2022-09-07T07:33:48.219Z,62.25
2022-09-07T07:34:48.142Z,62.01
2022-09-07T07:35:48.115Z,61.15
2022-09-07T07:36:48.094Z,61.42
2022-09-07T07:37:48.096Z,60.46
2022-09-07T07:39:03.570Z,62.94
2022-09-07T07:42:49.006Z,62.51
2022-09-07T07:43:48.010Z,61.57
2022-09-07T07:44:48.026Z,61.02
2022-09-07T07:45:55.213Z,60.50
2022-09-07T07:46:50.315Z,60.91
2022-09-07T07:47:47.934Z,61.71
2022-09-07T07:48:47.943Z,60.91
2022-09-07T07:49:48.032Z,60.94
2022-09-07T07:50:47.863Z,61.06
2022-09-07T07:52:50.476Z,61.47
2022-09-07T07:53:48.859Z,60.46
2022-09-07T07:54:47.831Z,60.93
2022-09-07T07:55:47.842Z,59.90
2022-09-07T07:56:47.770Z,61.26
2022-09-07T07:57:48.771Z,60.48
2022-09-07T07:58:47.777Z,60.92
2022-09-07T07:59:47.738Z,60.82
2022-09-07T08:00:56.131Z,60.00
2022-09-07T08:01:49.912Z,62.18
2022-09-07T08:02:47.761Z,59.92
2022-09-07T08:03:47.691Z,59.79
2022-09-07T08:04:47.705Z,61.12
2022-09-07T08:05:47.661Z,60.48
2022-09-07T08:06:47.639Z,60.19
2022-09-07T08:07:47.622Z,59.52
2022-09-07T08:08:47.675Z,61.24
2022-09-07T08:09:47.638Z,61.64
2022-09-07T08:10:47.599Z,61.95
2022-09-07T08:11:47.593Z,61.16
2022-09-07T08:12:47.574Z,61.49
2022-09-07T08:13:47.554Z,61.06
2022-09-07T08:14:47.569Z,60.42
2022-09-07T08:15:47.524Z,59.72
2022-09-07T08:16:47.513Z,58.51
2022-09-07T08:17:47.506Z,62.03
2022-09-07T08:18:47.494Z,62.80
2022-09-07T08:19:47.500Z,63.28
2022-09-07T08:20:47.465Z,62.73
2022-09-07T08:21:47.501Z,62.59
2022-09-07T08:22:47.445Z,61.88
2022-09-07T08:23:47.434Z,59.67
2022-09-07T08:24:47.439Z,60.88
2022-09-07T08:25:47.387Z,62.49
2022-09-07T08:26:47.377Z,62.53
2022-09-07T08:27:47.360Z,62.73
2022-09-07T08:28:47.390Z,62.47
2022-09-07T08:29:47.337Z,63.11
2022-09-07T08:30:47.323Z,60.64
2022-09-07T08:31:47.378Z,58.51
2022-09-07T08:32:47.294Z,58.63
2022-09-07T08:33:47.313Z,61.31
2022-09-07T08:34:47.253Z,61.79
2022-09-07T08:35:47.254Z,61.71
2022-09-07T08:36:47.231Z,60.14
2022-09-07T08:37:47.382Z,58.71
2022-09-07T08:38:47.242Z,61.87
2022-09-07T08:39:47.237Z,62.98
2022-09-07T08:40:47.251Z,61.00
2022-09-07T08:41:47.184Z,61.36
2022-09-07T08:42:47.163Z,60.90
2022-09-07T08:43:49.216Z,62.46
2022-09-07T08:44:48.137Z,62.10
2022-09-07T08:45:47.116Z,61.47
2022-09-07T08:46:47.222Z,61.57
2022-09-07T08:47:47.091Z,59.82
2022-09-07T08:48:47.140Z,59.50
2022-09-07T08:49:47.055Z,61.32
2022-09-07T08:50:47.046Z,60.67
2022-09-07T08:51:47.042Z,60.36
2022-09-07T08:52:47.013Z,62.02
2022-09-07T08:53:47.043Z,61.26
2022-09-07T08:54:46.989Z,59.95
2022-09-07T08:55:46.980Z,60.86
2022-09-07T08:57:48.952Z,60.19
2022-09-07T08:58:49.554Z,61.80
2022-09-07T08:59:47.933Z,62.02
2022-09-07T09:00:46.915Z,62.58
2022-09-07T09:02:26.975Z,62.39
2022-09-07T09:03:28.612Z,63.85
2022-09-07T09:05:19.008Z,63.04
2022-09-07T09:05:48.911Z,60.66
2022-09-07T09:06:46.978Z,62.08
2022-09-07T09:07:46.837Z,60.54
2022-09-07T09:08:46.862Z,60.24
2022-09-07T09:09:46.802Z,59.80
2022-09-07T09:10:46.779Z,60.48
2022-09-07T09:11:46.792Z,59.89
2022-09-07T09:12:46.749Z,59.37
2022-09-07T09:13:46.743Z,60.21
2022-09-07T09:14:46.755Z,58.95
2022-09-07T09:15:46.773Z,59.76
2022-09-07T09:16:46.711Z,60.18
2022-09-07T09:17:46.684Z,59.26
2022-09-07T09:18:46.725Z,59.30
2022-09-07T09:19:46.659Z,60.86
2022-09-07T09:20:46.644Z,61.50
2022-09-07T09:21:46.640Z,59.80
2022-09-07T09:22:46.614Z,59.46
2022-09-07T09:23:46.606Z,61.33
2022-09-07T09:24:46.649Z,59.38
2022-09-07T09:25:46.581Z,59.13
2022-09-07T09:26:46.616Z,60.99
2022-09-07T09:27:46.544Z,63.24
2022-09-07T09:28:46.578Z,62.67
2022-09-07T09:29:46.510Z,62.23
2022-09-07T09:30:46.509Z,61.07
2022-09-07T09:31:46.550Z,61.79
2022-09-07T09:32:46.475Z,61.69
2022-09-07T09:33:46.453Z,62.06
2022-09-07T09:34:46.479Z,62.47
2022-09-07T09:35:46.424Z,61.14
2022-09-07T09:36:46.457Z,61.54
2022-09-07T09:37:46.409Z,60.07
2022-09-07T09:38:46.428Z,62.86
2022-09-07T09:39:49.028Z,61.02
2022-09-07T09:40:46.367Z,62.26
2022-09-07T09:41:46.341Z,61.66
2022-09-07T09:42:46.335Z,61.79
2022-09-07T09:43:46.313Z,62.30
2022-09-07T09:44:46.329Z,61.14
2022-09-07T09:47:29.184Z,60.08
2022-09-07T09:47:47.316Z,60.59
2022-09-07T09:48:46.277Z,59.48
2022-09-07T09:49:46.234Z,60.13
2022-09-07T09:52:51.843Z,57.03
2022-09-07T09:53:47.229Z,60.82
2022-09-07T09:54:46.166Z,61.66
2022-09-07T09:55:46.151Z,62.38
2022-09-07T09:56:46.145Z,59.61
2022-09-07T09:59:04.878Z,59.79
2022-09-07T09:59:57.397Z,59.74
2022-09-07T10:03:55.916Z,59.61
2022-09-07T10:04:48.084Z,60.93
2022-09-07T10:05:46.020Z,60.81
2022-09-07T10:06:46.028Z,59.96
2022-09-07T10:07:45.996Z,59.56
2022-09-07T10:08:45.976Z,61.51
2022-09-07T10:09:46.011Z,61.22
2022-09-07T10:10:45.963Z,61.61
2022-09-07T10:12:47.938Z,58.73
2022-09-07T10:13:46.867Z,58.26
2022-09-07T10:14:45.939Z,56.60
2022-09-07T10:15:45.941Z,57.96
2022-09-07T10:16:45.872Z,57.28
2022-09-07T10:17:45.862Z,57.20
2022-09-07T10:18:45.851Z,60.22
2022-09-07T10:19:45.858Z,60.55
2022-09-07T10:20:45.813Z,59.79
2022-09-07T10:21:45.800Z,60.73
2022-09-07T10:22:49.602Z,60.32
2022-09-07T10:23:47.780Z,61.70
2022-09-07T10:24:45.788Z,61.30
2022-09-07T10:25:45.743Z,60.51
2022-09-07T10:26:45.734Z,60.18
2022-09-07T10:27:45.728Z,60.48
2022-09-07T10:29:47.760Z,56.85
2022-09-07T10:30:45.727Z,58.69
2022-09-07T10:31:45.717Z,58.10
2022-09-07T10:32:45.653Z,57.50
2022-09-07T10:34:25.687Z,58.37
2022-09-07T10:34:46.653Z,59.05
2022-09-07T10:35:45.618Z,59.88
2022-09-07T10:36:45.585Z,58.91
2022-09-07T10:37:45.588Z,57.54
2022-09-07T10:38:45.591Z,57.53
2022-09-07T10:39:45.636Z,58.42
2022-09-07T10:40:45.612Z,55.89
2022-09-07T10:41:45.599Z,60.59
2022-09-07T10:43:20.652Z,58.31
2022-09-07T10:43:47.512Z,60.02
2022-09-07T10:44:45.513Z,60.01
2022-09-07T10:45:45.464Z,57.11
2022-09-07T10:47:00.901Z,57.19
2022-09-07T10:47:47.508Z,59.09
2022-09-07T10:48:45.455Z,58.80
2022-09-07T10:50:47.426Z,59.16
2022-09-07T10:51:45.378Z,58.89
2022-09-07T10:52:45.382Z,60.48
2022-09-07T10:53:45.492Z,59.92
2022-09-07T10:54:45.383Z,57.99
2022-09-07T10:55:45.339Z,58.59
2022-09-07T10:56:45.315Z,58.81
2022-09-07T10:57:48.906Z,60.91
2022-09-07T10:59:02.833Z,59.55
2022-09-07T11:00:47.279Z,59.19
2022-09-07T11:01:45.272Z,59.56
2022-09-07T11:03:24.860Z,60.79
2022-09-07T11:03:47.264Z,60.99
2022-09-07T11:04:45.241Z,58.62
2022-09-07T11:05:45.196Z,60.52
2022-09-07T11:06:45.233Z,59.62
2022-09-07T11:07:45.158Z,60.28
2022-09-07T11:09:47.181Z,62.08
2022-09-07T11:10:45.121Z,61.49
2022-09-07T11:12:01.118Z,61.18
2022-09-07T11:12:47.096Z,61.65
2022-09-07T11:14:09.365Z,60.27
2022-09-07T11:14:47.087Z,60.53
2022-09-07T11:15:45.081Z,61.70
2022-09-07T11:16:52.291Z,60.98
2022-09-07T11:17:52.005Z,61.02
2022-09-07T11:18:47.026Z,62.17
2022-09-07T11:19:45.024Z,62.02
2022-09-07T11:20:44.990Z,61.58
2022-09-07T11:22:00.273Z,61.14
2022-09-07T11:22:46.928Z,62.24
2022-09-07T11:23:44.941Z,63.28
2022-09-07T11:24:45.265Z,62.49
2022-09-07T11:25:46.721Z,63.00
2022-09-07T11:26:44.865Z,61.81
2022-09-07T11:27:44.867Z,60.04
2022-09-07T11:28:45.341Z,61.73
2022-09-07T11:29:44.882Z,63.08
2022-09-07T11:30:44.892Z,62.00
2022-09-07T11:31:44.800Z,61.76
2022-09-07T11:32:44.788Z,60.66
2022-09-07T11:34:23.727Z,60.56
2022-09-07T11:34:46.799Z,60.28
2022-09-07T11:35:44.751Z,62.37
2022-09-07T11:36:44.738Z,63.12
2022-09-07T11:37:44.705Z,61.09
2022-09-07T11:38:44.700Z,63.12
2022-09-07T11:39:44.789Z,61.58
2022-09-07T11:40:44.657Z,61.71
2022-09-07T11:41:44.656Z,62.13
2022-09-07T11:42:44.700Z,62.65
2022-09-07T11:43:44.616Z,63.97
2022-09-07T11:44:44.627Z,63.29
2022-09-07T11:45:44.640Z,63.68
2022-09-07T11:46:44.639Z,64.10
2022-09-07T11:47:44.558Z,63.04
2022-09-07T11:48:44.525Z,61.81
2022-09-07T11:49:50.789Z,60.84
2022-09-07T11:50:46.516Z,59.55
2022-09-07T11:51:44.476Z,59.67
2022-09-07T11:52:44.479Z,60.64
2022-09-07T11:53:44.457Z,60.21
2022-09-07T11:54:44.464Z,59.19
2022-09-07T11:55:44.416Z,59.93
2022-09-07T11:56:45.710Z,60.05
2022-09-07T11:57:45.382Z,61.29
2022-09-07T11:58:44.371Z,60.95
2022-09-07T11:59:44.382Z,61.23
2022-09-07T12:00:44.345Z,62.77
2022-09-07T12:01:44.336Z,62.37
2022-09-07T12:02:58.999Z,61.64
2022-09-07T12:03:46.433Z,59.53
2022-09-07T12:04:44.362Z,59.15
2022-09-07T12:05:44.269Z,61.13
2022-09-07T12:06:44.254Z,63.26
2022-09-07T12:07:44.239Z,62.00
2022-09-07T12:08:44.198Z,63.18
2022-09-07T12:09:44.215Z,63.03
2022-09-07T12:10:44.174Z,60.16
2022-09-07T12:11:44.164Z,59.98
2022-09-07T12:12:44.153Z,60.51
2022-09-07T12:13:44.125Z,60.89
2022-09-07T12:14:44.175Z,61.74
2022-09-07T12:15:44.114Z,62.46
2022-09-07T12:16:44.077Z,61.89
2022-09-07T12:17:44.073Z,60.84
2022-09-07T12:18:44.067Z,61.27
2022-09-07T12:19:44.049Z,62.11
2022-09-07T12:20:44.030Z,61.24
2022-09-07T12:21:44.003Z,59.68
2022-09-07T12:22:43.983Z,59.53
2022-09-07T12:23:43.973Z,59.48
2022-09-07T12:24:44.035Z,61.38
2022-09-07T12:25:43.951Z,60.66
2022-09-07T12:26:43.921Z,58.92
2022-09-07T12:27:43.901Z,60.97
2022-09-07T12:28:43.894Z,61.65
2022-09-07T12:29:45.433Z,62.06
2022-09-07T12:30:44.901Z,62.24
2022-09-07T12:31:57.188Z,61.31
2022-09-07T12:32:54.276Z,62.35
2022-09-07T12:33:45.812Z,63.17
2022-09-07T12:34:43.827Z,62.92
2022-09-07T12:35:43.778Z,60.37
2022-09-07T12:36:43.773Z,61.32
2022-09-07T12:37:43.790Z,60.10
2022-09-07T12:38:43.727Z,59.99
2022-09-07T12:39:43.808Z,61.17
2022-09-07T12:40:43.813Z,62.26
2022-09-07T12:41:44.615Z,61.08
2022-09-07T12:42:43.663Z,61.84
2022-09-07T12:43:43.654Z,61.69
2022-09-07T12:44:43.670Z,60.39
2022-09-07T12:45:43.619Z,61.60
2022-09-07T12:46:43.640Z,61.54
2022-09-07T12:47:43.586Z,60.79
2022-09-07T12:48:43.565Z,63.03
2022-09-07T12:49:43.588Z,62.23
2022-09-07T12:50:43.537Z,62.88
2022-09-07T12:52:45.518Z,62.47
2022-09-07T12:53:43.626Z,61.72
2022-09-07T12:54:43.597Z,60.58
2022-09-07T12:56:45.695Z,61.38
2022-09-07T12:57:43.458Z,59.84
2022-09-07T12:58:43.521Z,63.19
2022-09-07T12:59:43.424Z,60.85
2022-09-07T13:00:43.393Z,62.40
2022-09-07T13:01:43.908Z,62.47
2022-09-07T13:02:43.413Z,62.01
2022-09-07T13:03:51.954Z,61.49
2022-09-07T13:04:45.383Z,61.48
2022-09-07T13:05:43.304Z,62.68
2022-09-07T13:07:45.263Z,63.80
2022-09-07T13:08:43.237Z,62.73
2022-09-07T13:09:43.280Z,64.49
2022-09-07T13:10:43.229Z,64.56
2022-09-07T13:11:43.246Z,64.39
2022-09-07T13:12:58.581Z,66.58
2022-09-07T13:14:45.196Z,65.61
2022-09-07T13:15:43.216Z,64.38
2022-09-07T13:17:45.108Z,62.39
2022-09-07T13:18:43.082Z,63.37
2022-09-07T13:19:43.128Z,64.18
2022-09-07T13:20:43.045Z,64.23
2022-09-07T13:21:43.157Z,67.42
2022-09-07T13:22:43.024Z,66.28